createdAt,value
2023-04-11T00:01:49.575Z,89.75
2023-04-11T00:04:17.504Z,90.06
2023-04-11T00:06:44.761Z,90.43
2023-04-11T00:09:12.292Z,90.30
2023-04-11T00:11:39.790Z,89.79
2023-04-11T00:14:09.020Z,90.34
2023-04-11T00:16:36.756Z,90.21
2023-04-11T00:19:04.753Z,89.94
2023-04-11T00:21:31.972Z,89.61
2023-04-11T00:23:59.209Z,88.95
2023-04-11T00:26:27.270Z,88.61
2023-04-11T00:28:54.826Z,89.80
2023-04-11T00:31:22.242Z,90.02
2023-04-11T00:33:49.769Z,89.75
2023-04-11T00:36:17.061Z,89.95
2023-04-11T00:38:44.827Z,90.10
2023-04-11T00:41:12.449Z,90.37
2023-04-11T00:43:39.684Z,90.75
2023-04-11T00:46:09.165Z,90.90
2023-04-11T00:48:37.110Z,91.39
2023-04-11T00:51:04.346Z,91.48
2023-04-11T00:53:32.747Z,92.09
2023-04-11T00:56:00.834Z,92.09
2023-04-11T00:58:28.831Z,91.77
2023-04-11T01:00:56.067Z,92.70
2023-04-11T01:03:23.809Z,91.73
2023-04-11T01:05:54.602Z,91.76
2023-04-11T01:08:22.714Z,92.87
2023-04-11T01:10:50.316Z,93.11
2023-04-11T01:13:20.455Z,92.05
2023-04-11T01:15:47.732Z,91.71
2023-04-11T01:18:15.581Z,91.74
2023-04-11T01:20:42.858Z,92.03
2023-04-11T01:23:11.004Z,91.80
2023-04-11T01:25:38.664Z,91.58
2023-04-11T01:28:08.728Z,91.80
2023-04-11T01:30:36.012Z,91.35
2023-04-11T01:33:03.667Z,91.73
2023-04-11T01:35:31.065Z,92.39
2023-04-11T01:37:59.166Z,92.65
2023-04-11T01:40:27.947Z,93.24
2023-04-11T01:42:55.339Z,93.01
2023-04-11T01:45:22.620Z,93.17
2023-04-11T01:47:51.412Z,93.78
2023-04-11T01:50:18.657Z,93.95
2023-04-11T01:52:47.796Z,94.23
2023-04-11T01:55:15.726Z,94.11
2023-04-11T01:57:43.068Z,93.76
2023-04-11T02:00:11.121Z,93.39
2023-04-11T02:02:41.639Z,93.61
2023-04-11T02:05:10.886Z,94.90
2023-04-11T02:07:38.226Z,95.09
2023-04-11T02:10:06.224Z,94.36
2023-04-11T02:12:33.840Z,94.97
2023-04-11T02:15:00.996Z,95.83
2023-04-11T02:17:31.163Z,95.23
2023-04-11T02:19:58.841Z,96.35
2023-04-11T02:22:26.147Z,96.50
2023-04-11T02:24:53.339Z,97.31
2023-04-11T02:27:20.879Z,96.02
2023-04-11T02:29:48.050Z,95.76
2023-04-11T02:32:16.268Z,96.06
2023-04-11T02:34:45.786Z,95.86
2023-04-11T02:37:13.014Z,95.54
2023-04-11T02:39:40.348Z,95.12
2023-04-11T02:42:07.869Z,95.06
2023-04-11T02:44:35.067Z,94.54
2023-04-11T02:47:02.549Z,93.62
2023-04-11T02:49:30.511Z,93.25
2023-04-11T02:51:58.659Z,92.75
2023-04-11T02:54:25.916Z,91.39
2023-04-11T02:56:55.847Z,90.56
2023-04-11T02:59:23.377Z,90.14
2023-04-11T03:01:50.775Z,90.36
2023-04-11T03:04:18.516Z,90.42
2023-04-11T03:06:46.874Z,90.40
2023-04-11T03:09:14.273Z,91.43
2023-04-11T03:11:42.018Z,91.07
2023-04-11T03:14:09.424Z,90.67
2023-04-11T03:16:36.753Z,90.31
2023-04-11T03:19:05.873Z,89.87
2023-04-11T03:21:33.154Z,91.20
2023-04-11T03:24:00.474Z,90.73
2023-04-11T03:26:27.963Z,90.65
2023-04-11T03:28:56.658Z,90.22
2023-04-11T03:31:24.267Z,91.81
2023-04-11T03:33:54.461Z,92.66
2023-04-11T03:36:27.066Z,91.45
2023-04-11T03:38:55.213Z,90.56
2023-04-11T03:41:22.702Z,90.48
2023-04-11T03:43:50.364Z,90.36
2023-04-11T03:46:19.793Z,90.19
2023-04-11T03:48:47.343Z,89.24
2023-04-11T03:51:14.715Z,88.98
2023-04-11T03:53:42.918Z,89.65
2023-04-11T03:56:12.274Z,90.39
2023-04-11T03:58:39.513Z,90.69
2023-04-11T04:01:07.132Z,91.19
2023-04-11T04:03:35.111Z,90.26
2023-04-11T04:06:02.733Z,89.43
2023-04-11T04:08:30.148Z,89.91
2023-04-11T04:10:57.646Z,87.95
2023-04-11T04:13:25.283Z,86.16
2023-04-11T04:15:52.827Z,86.59
2023-04-11T04:18:21.846Z,87.00
2023-04-11T04:20:49.451Z,85.95
2023-04-11T04:23:18.144Z,86.00
2023-04-11T04:25:50.657Z,86.89
2023-04-11T04:28:22.549Z,88.06
2023-04-11T04:30:54.065Z,88.64
2023-04-11T04:33:22.181Z,88.11
2023-04-11T04:35:51.645Z,89.25
2023-04-11T04:38:19.408Z,90.00
2023-04-11T04:40:50.526Z,90.43
2023-04-11T04:43:22.351Z,92.01
2023-04-11T04:45:50.760Z,92.00
2023-04-11T04:48:18.651Z,89.12
2023-04-11T04:50:46.027Z,86.45
2023-04-11T04:53:13.701Z,84.18
2023-04-11T04:55:43.618Z,84.53
2023-04-11T04:58:11.220Z,85.46
2023-04-11T05:00:40.193Z,86.85
2023-04-11T05:03:10.915Z,88.15
2023-04-11T05:05:38.357Z,88.91
2023-04-11T05:08:05.660Z,89.38
2023-04-11T05:10:33.538Z,90.29
2023-04-11T05:13:00.962Z,90.91
2023-04-11T05:15:28.144Z,91.29
2023-04-11T05:17:55.637Z,91.78
2023-04-11T05:20:24.744Z,91.27
2023-04-11T05:22:53.531Z,88.99
2023-04-11T05:25:21.602Z,86.86
2023-04-11T05:27:49.249Z,85.42
2023-04-11T05:30:17.897Z,84.49
2023-04-11T05:32:47.744Z,83.38
2023-04-11T05:35:15.442Z,82.35
2023-04-11T05:37:43.395Z,81.75
2023-04-11T05:40:11.078Z,81.56
2023-04-11T05:42:38.342Z,78.90
2023-04-11T05:45:06.384Z,80.62
2023-04-11T05:47:33.870Z,81.15
2023-04-11T05:50:01.027Z,80.82
2023-04-11T05:52:28.182Z,80.86
2023-04-11T05:54:55.977Z,80.05
2023-04-11T05:57:23.574Z,79.90
2023-04-11T05:59:53.033Z,79.87
2023-04-11T06:02:21.580Z,79.21
2023-04-11T06:04:49.097Z,81.19
2023-04-11T06:07:16.716Z,83.04
2023-04-11T06:09:44.329Z,85.08
2023-04-11T06:12:11.728Z,86.05
2023-04-11T06:14:40.637Z,85.93
2023-04-11T06:17:07.939Z,86.68
2023-04-11T06:19:35.343Z,86.17
2023-04-11T06:22:02.428Z,86.78
2023-04-11T06:24:40.230Z,84.92
2023-04-11T06:27:10.852Z,84.05
2023-04-11T06:29:38.666Z,83.71
2023-04-11T06:32:06.580Z,84.09
2023-04-11T06:34:34.491Z,83.09
2023-04-11T06:37:01.757Z,81.63
2023-04-11T06:39:28.946Z,80.18
2023-04-11T06:41:56.614Z,78.55
2023-04-11T06:44:24.216Z,79.60
2023-04-11T06:46:51.545Z,78.49
2023-04-11T06:49:19.209Z,79.13
2023-04-11T06:51:49.173Z,79.24
2023-04-11T06:54:17.377Z,76.82
2023-04-11T06:56:44.977Z,76.15
2023-04-11T06:59:12.199Z,75.86
2023-04-11T07:01:40.056Z,77.04
2023-04-11T07:04:08.265Z,78.83
2023-04-11T07:06:35.942Z,79.60
2023-04-11T07:09:06.528Z,79.40
2023-04-11T07:11:34.032Z,78.40
2023-04-11T07:14:02.003Z,75.92
2023-04-11T07:16:29.182Z,77.35
2023-04-11T07:18:57.089Z,75.87
2023-04-11T07:21:24.314Z,75.90
2023-04-11T07:23:52.755Z,76.49
2023-04-11T07:26:20.231Z,74.03
2023-04-11T07:28:47.915Z,71.67
2023-04-11T07:31:15.338Z,69.98
2023-04-11T07:33:43.424Z,71.85
2023-04-11T07:36:11.037Z,72.92
2023-04-11T07:38:39.026Z,70.81
2023-04-11T07:41:06.825Z,69.31
2023-04-11T07:43:34.041Z,67.47
2023-04-11T07:46:01.749Z,67.17
2023-04-11T07:48:30.570Z,66.42
2023-04-11T07:50:57.864Z,66.20
2023-04-11T07:53:25.140Z,64.58
2023-04-11T07:55:52.678Z,67.12
2023-04-11T07:58:19.913Z,66.59
2023-04-11T08:00:47.642Z,68.58
2023-04-11T08:03:16.905Z,66.40
2023-04-11T08:05:44.472Z,66.91
2023-04-11T08:08:11.899Z,67.75
2023-04-11T08:10:39.455Z,67.69
2023-04-11T08:13:06.739Z,67.22
2023-04-11T08:15:36.881Z,65.40
2023-04-11T08:18:05.805Z,66.33
2023-04-11T08:20:33.201Z,67.56
2023-04-11T08:23:05.460Z,69.10
2023-04-11T08:25:33.496Z,68.54
2023-04-11T08:28:01.358Z,68.31
2023-04-11T08:30:28.616Z,68.20
2023-04-11T08:32:56.283Z,68.86
2023-04-11T08:35:23.656Z,68.80
2023-04-11T08:37:50.902Z,67.84
2023-04-11T08:40:18.551Z,65.92
2023-04-11T08:42:46.187Z,64.07
2023-04-11T08:45:13.474Z,62.92
2023-04-11T08:47:42.573Z,63.26
2023-04-11T08:50:12.100Z,62.38
2023-04-11T08:52:39.699Z,61.11
2023-04-11T08:55:07.542Z,61.67
2023-04-11T08:57:34.963Z,61.25
2023-04-11T09:00:14.946Z,59.27
2023-04-11T09:03:02.374Z,60.71
2023-04-11T09:05:40.472Z,59.67
2023-04-11T09:08:12.709Z,60.27
2023-04-11T09:10:41.663Z,59.19
2023-04-11T09:13:20.944Z,58.94
2023-04-11T09:15:48.510Z,57.46
2023-04-11T09:18:36.938Z,58.59
2023-04-11T09:21:06.690Z,59.72
2023-04-11T09:23:35.234Z,59.25
2023-04-11T09:26:02.740Z,59.33
2023-04-11T09:28:39.929Z,60.38
2023-04-11T09:31:07.796Z,59.06
2023-04-11T09:33:35.035Z,61.49
2023-04-11T09:36:18.163Z,58.02
2023-04-11T09:38:45.642Z,59.02
2023-04-11T09:41:12.958Z,61.37
2023-04-11T09:43:55.498Z,57.79
2023-04-11T09:46:23.815Z,59.19
2023-04-11T09:48:54.998Z,60.04
2023-04-11T09:51:34.338Z,60.28
2023-04-11T09:54:03.966Z,59.94
2023-04-11T09:56:31.795Z,57.15
2023-04-11T09:59:00.287Z,56.52
2023-04-11T10:01:28.180Z,56.60
2023-04-11T10:03:56.732Z,58.55
2023-04-11T10:06:34.360Z,57.82
2023-04-11T10:09:11.073Z,59.48
2023-04-11T10:11:43.185Z,58.79
2023-04-11T10:14:38.494Z,58.42
2023-04-11T10:17:22.682Z,59.21
2023-04-11T10:19:56.703Z,57.16
2023-04-11T10:22:50.712Z,57.18
2023-04-11T10:25:19.861Z,56.56
2023-04-11T10:27:50.673Z,54.93
2023-04-11T10:30:18.205Z,56.23
2023-04-11T10:33:14.740Z,56.73
2023-04-11T10:36:06.151Z,58.93
2023-04-11T10:38:48.862Z,57.46
2023-04-11T10:41:22.836Z,57.05
2023-04-11T10:43:50.646Z,56.54
2023-04-11T10:46:23.421Z,55.36
2023-04-11T10:49:00.981Z,54.40
2023-04-11T10:51:30.002Z,54.43
2023-04-11T10:53:59.979Z,53.25
2023-04-11T10:56:42.920Z,54.04
2023-04-11T10:59:32.102Z,52.90
2023-04-11T11:02:02.665Z,54.30
2023-04-11T11:04:37.791Z,54.56
2023-04-11T11:07:07.252Z,51.44
2023-04-11T11:09:35.171Z,55.40
2023-04-11T11:12:12.599Z,51.91
2023-04-11T11:14:41.904Z,54.37
2023-04-11T11:17:09.495Z,50.78
2023-04-11T11:19:36.696Z,48.41
2023-04-11T11:22:04.906Z,47.65
2023-04-11T11:24:32.723Z,50.21
2023-04-11T11:26:59.862Z,46.07
2023-04-11T11:29:45.253Z,47.68
2023-04-11T11:32:21.361Z,44.97
2023-04-11T11:34:48.920Z,46.00
2023-04-11T11:37:16.325Z,47.19
2023-04-11T11:39:43.719Z,47.50
2023-04-11T11:42:11.708Z,44.58
2023-04-11T11:44:38.902Z,45.74
2023-04-11T11:47:06.313Z,43.52
2023-04-11T11:49:54.496Z,45.24
2023-04-11T11:52:32.565Z,45.84
2023-04-11T11:55:01.383Z,44.84
2023-04-11T11:57:28.606Z,45.38
2023-04-11T11:59:56.371Z,44.99
2023-04-11T12:02:25.614Z,45.98
2023-04-11T12:05:00.770Z,46.89
2023-04-11T12:07:32.755Z,46.60
2023-04-11T12:10:08.110Z,45.29
2023-04-11T12:12:36.697Z,45.63
2023-04-11T12:15:17.858Z,47.68
2023-04-11T12:17:57.200Z,44.43
2023-04-11T12:20:26.647Z,47.26
2023-04-11T12:22:55.051Z,45.87
2023-04-11T12:25:22.679Z,46.30
2023-04-11T12:27:50.259Z,43.96
2023-04-11T12:30:17.767Z,44.64
2023-04-11T12:32:45.406Z,43.30
2023-04-11T12:35:13.100Z,43.77
2023-04-11T12:37:40.525Z,42.89
2023-04-11T12:40:12.522Z,42.52
2023-04-11T12:45:11.697Z,42.12
2023-04-11T12:47:39.098Z,42.00
2023-04-11T12:50:07.318Z,42.90
2023-04-11T12:52:34.584Z,40.19
2023-04-11T12:55:01.771Z,42.21
2023-04-11T12:57:29.218Z,41.55
2023-04-11T12:59:56.568Z,42.18
2023-04-11T13:02:23.832Z,39.61
2023-04-11T13:04:54.840Z,38.77
2023-04-11T13:07:22.157Z,41.18
2023-04-11T13:09:49.561Z,39.43
2023-04-11T13:12:17.088Z,41.03
2023-04-11T13:14:44.223Z,41.11
2023-04-11T13:17:11.474Z,40.42
2023-04-11T13:19:38.876Z,40.19
2023-04-11T13:22:06.096Z,41.99
2023-04-11T13:24:33.598Z,42.68
2023-04-11T13:27:00.975Z,41.11
2023-04-11T13:29:28.367Z,40.07
2023-04-11T13:31:55.614Z,40.50
2023-04-11T13:34:23.158Z,43.74
2023-04-11T13:36:51.299Z,43.23
2023-04-11T13:39:18.498Z,42.77
2023-04-11T13:41:46.164Z,42.78
2023-04-11T13:44:13.340Z,42.50
2023-04-11T13:46:40.481Z,41.73
2023-04-11T13:49:07.932Z,42.23
2023-04-11T13:51:35.145Z,41.31
2023-04-11T13:54:02.258Z,41.64
2023-04-11T13:56:32.100Z,41.65
2023-04-11T13:58:59.549Z,42.77
2023-04-11T14:01:26.821Z,42.82
2023-04-11T14:03:54.445Z,42.34
2023-04-11T14:06:22.506Z,41.22
2023-04-11T14:08:50.656Z,41.16
2023-04-11T14:11:18.427Z,41.87
2023-04-11T14:13:45.568Z,41.05
2023-04-11T14:16:12.930Z,41.13
2023-04-11T14:18:40.715Z,40.12
2023-04-11T14:21:08.256Z,40.78
2023-04-11T14:23:35.857Z,42.38
2023-04-11T14:26:03.327Z,43.26
2023-04-11T14:28:30.616Z,43.67
2023-04-11T14:30:57.865Z,43.30
2023-04-11T14:33:25.449Z,44.15
2023-04-11T14:35:52.592Z,46.16
2023-04-11T14:38:19.734Z,46.91
2023-04-11T14:40:47.238Z,47.97
2023-04-11T14:43:14.461Z,47.96
2023-04-11T14:45:41.703Z,49.69
2023-04-11T14:48:09.292Z,50.33
2023-04-11T14:50:36.696Z,51.83
2023-04-11T14:53:03.934Z,53.84
2023-04-11T14:55:31.469Z,55.88
2023-04-11T14:57:58.709Z,58.62
2023-04-11T15:00:26.784Z,61.30
2023-04-11T15:02:56.127Z,65.35
2023-04-11T15:05:24.212Z,69.59
2023-04-11T15:07:52.571Z,74.86
2023-04-11T15:10:22.716Z,77.03
2023-04-11T15:12:50.135Z,80.17
2023-04-11T15:15:17.461Z,83.48
2023-04-11T15:17:50.381Z,84.97
2023-04-11T15:20:17.639Z,87.23
2023-04-11T15:22:46.243Z,89.17
2023-04-11T15:25:15.445Z,89.26
2023-04-11T15:27:42.895Z,89.49
2023-04-11T15:30:11.462Z,89.61
2023-04-11T15:32:42.749Z,90.96
2023-04-11T15:35:10.656Z,91.08
2023-04-11T15:37:37.804Z,91.84
2023-04-11T15:40:06.150Z,92.46
2023-04-11T15:42:35.409Z,91.14
2023-04-11T15:45:03.181Z,92.72
2023-04-11T15:47:31.410Z,93.83
2023-04-11T15:50:01.856Z,94.14
2023-04-11T15:52:28.974Z,94.41
2023-04-11T15:54:56.800Z,93.50
2023-04-11T15:57:24.257Z,94.16
2023-04-11T15:59:51.390Z,95.59
2023-04-11T16:02:18.711Z,94.83
2023-04-11T16:04:47.929Z,95.61
2023-04-11T16:07:19.293Z,96.55
2023-04-11T16:09:46.944Z,96.64
2023-04-11T16:12:14.329Z,96.85
2023-04-11T16:14:41.481Z,97.58
2023-04-11T16:17:08.871Z,97.68
2023-04-11T16:19:36.059Z,97.45
2023-04-11T16:22:03.242Z,97.52
2023-04-11T16:24:31.136Z,96.14
2023-04-11T16:26:58.376Z,95.19
2023-04-11T16:29:25.655Z,94.70
2023-04-11T16:31:53.033Z,95.46
2023-04-11T16:34:20.201Z,94.57
2023-04-11T16:36:47.410Z,93.58
2023-04-11T16:39:14.876Z,93.63
2023-04-11T16:41:42.000Z,93.29
2023-04-11T16:44:11.729Z,91.70
2023-04-11T16:46:42.743Z,92.04
2023-04-11T16:49:10.092Z,91.50
2023-04-11T16:51:37.733Z,90.76
2023-04-11T16:54:09.688Z,91.22
2023-04-11T16:56:37.480Z,91.92
2023-04-11T16:59:05.253Z,90.00
2023-04-11T17:01:32.459Z,90.47
2023-04-11T17:04:01.280Z,88.28
2023-04-11T17:06:29.201Z,87.87
2023-04-11T17:08:57.662Z,88.30
2023-04-11T17:11:25.207Z,89.42
2023-04-11T17:13:54.469Z,89.47
2023-04-11T17:16:22.173Z,89.80
2023-04-11T17:18:49.374Z,90.02
2023-04-11T17:21:17.161Z,92.63
2023-04-11T17:23:44.766Z,90.98
2023-04-11T17:26:12.372Z,92.34
2023-04-11T17:28:40.817Z,93.16
2023-04-11T17:31:16.173Z,92.90
2023-04-11T17:33:43.874Z,94.64
2023-04-11T17:36:11.568Z,94.18
2023-04-11T17:38:39.242Z,94.02
2023-04-11T17:41:14.403Z,93.43
2023-04-11T17:43:42.302Z,93.08
2023-04-11T17:46:09.959Z,93.54
2023-04-11T17:48:37.318Z,92.80
2023-04-11T17:51:07.942Z,93.02
2023-04-11T17:53:35.925Z,93.08
2023-04-11T17:56:07.744Z,90.42
2023-04-11T17:58:35.426Z,88.88
2023-04-11T18:01:05.553Z,87.99
2023-04-11T18:03:35.137Z,88.13
2023-04-11T18:06:03.071Z,88.19
2023-04-11T18:08:39.209Z,88.00
2023-04-11T18:11:11.298Z,87.75
2023-04-11T18:13:38.427Z,87.61
2023-04-11T18:16:05.782Z,87.59
2023-04-11T18:18:33.289Z,87.67
2023-04-11T18:21:07.055Z,87.83
2023-04-11T18:23:35.257Z,88.17
2023-04-11T18:26:02.632Z,88.14
2023-04-11T18:28:30.178Z,89.11
2023-04-11T18:30:57.960Z,88.85
2023-04-11T18:33:26.242Z,89.18
2023-04-11T18:35:56.094Z,88.98
2023-04-11T18:38:23.762Z,89.14
2023-04-11T18:40:55.046Z,89.07
2023-04-11T18:43:23.867Z,88.44
2023-04-11T18:45:51.790Z,88.42
2023-04-11T18:48:19.693Z,88.14
2023-04-11T18:50:48.571Z,88.76
2023-04-11T18:53:20.696Z,88.25
2023-04-11T18:55:48.067Z,87.50
2023-04-11T18:58:18.677Z,87.83
2023-04-11T19:00:49.675Z,87.33
2023-04-11T19:03:17.977Z,86.68
2023-04-11T19:05:48.234Z,86.68
2023-04-11T19:08:15.542Z,85.58
2023-04-11T19:10:43.000Z,85.25
2023-04-11T19:13:10.374Z,84.98
2023-04-11T19:15:40.838Z,84.95
2023-04-11T19:18:08.949Z,84.34
2023-04-11T19:20:37.219Z,84.14
2023-04-11T19:23:06.684Z,84.11
2023-04-11T19:25:34.702Z,83.44
2023-04-11T19:28:03.606Z,82.84
2023-04-11T19:30:30.997Z,82.62
2023-04-11T19:32:58.878Z,82.89
2023-04-11T19:35:26.229Z,82.62
2023-04-11T19:37:53.712Z,82.52
2023-04-11T19:40:23.504Z,82.50
2023-04-11T19:42:51.626Z,82.85
2023-04-11T19:45:19.351Z,83.25
2023-04-11T19:47:49.035Z,83.28
2023-04-11T19:50:16.396Z,83.64
2023-04-11T19:52:44.154Z,83.84
2023-04-11T19:55:12.338Z,82.64
2023-04-11T19:57:40.955Z,82.64
2023-04-11T20:00:13.797Z,82.31
2023-04-11T20:02:46.771Z,82.40
2023-04-11T20:05:16.219Z,83.01
2023-04-11T20:07:44.450Z,82.28
2023-04-11T20:10:12.583Z,82.66
2023-04-11T20:12:39.872Z,82.24
2023-04-11T20:15:08.250Z,81.69
2023-04-11T20:17:35.751Z,82.12
2023-04-11T20:20:06.457Z,82.84
2023-04-11T20:22:34.411Z,83.22
2023-04-11T20:25:01.587Z,84.68
2023-04-11T20:27:28.845Z,87.47
2023-04-11T20:29:56.814Z,88.48
2023-04-11T20:32:24.075Z,92.27
2023-04-11T20:34:51.340Z,92.06
2023-04-11T20:37:19.541Z,92.76
2023-04-11T20:39:46.761Z,92.14
2023-04-11T20:42:13.876Z,92.39
2023-04-11T20:44:41.779Z,93.05
2023-04-11T20:47:09.170Z,93.34
2023-04-11T20:49:36.315Z,93.43
2023-04-11T20:52:03.848Z,94.15
2023-04-11T20:54:31.011Z,94.95
2023-04-11T20:56:58.133Z,94.41
2023-04-11T20:59:26.373Z,93.95
2023-04-11T21:01:53.814Z,94.67
2023-04-11T21:04:22.112Z,95.20
2023-04-11T21:06:50.023Z,95.91
2023-04-11T21:09:17.648Z,96.18
2023-04-11T21:11:44.803Z,95.70
2023-04-11T21:14:12.261Z,94.98
2023-04-11T21:16:39.875Z,95.43
2023-04-11T21:19:06.986Z,95.24
2023-04-11T21:21:34.465Z,95.46
2023-04-11T21:24:01.948Z,95.21
2023-04-11T21:26:29.108Z,95.79
2023-04-11T21:28:56.548Z,95.91
2023-04-11T21:31:23.724Z,96.09
2023-04-11T21:33:51.672Z,95.51
2023-04-11T21:36:19.143Z,95.02
2023-04-11T21:38:46.298Z,94.46
2023-04-11T21:41:13.449Z,94.09
2023-04-11T21:43:41.071Z,93.95
2023-04-11T21:46:08.214Z,93.77
2023-04-11T21:48:35.503Z,93.89
2023-04-11T21:51:03.807Z,93.07
2023-04-11T21:53:30.954Z,93.34
2023-04-11T21:55:58.082Z,93.57
2023-04-11T21:58:29.642Z,93.69
2023-04-11T22:00:57.215Z,94.23
2023-04-11T22:03:25.175Z,94.64
2023-04-11T22:05:53.281Z,94.46
2023-04-11T22:08:22.649Z,94.41
2023-04-11T22:10:50.816Z,94.12
2023-04-11T22:13:19.428Z,94.39
2023-04-11T22:15:48.775Z,94.42
2023-04-11T22:18:16.321Z,94.84
2023-04-11T22:20:44.153Z,95.03
2023-04-11T22:23:12.928Z,94.45
2023-04-11T22:25:42.283Z,94.40
2023-04-11T22:28:20.431Z,93.77
2023-04-11T22:30:47.867Z,92.13
2023-04-11T22:33:15.453Z,91.14
2023-04-11T22:35:47.683Z,90.99
2023-04-11T22:38:15.944Z,90.30
2023-04-11T22:40:43.144Z,90.67
2023-04-11T22:43:10.690Z,90.34
2023-04-11T22:45:38.227Z,89.94
2023-04-11T22:48:06.265Z,89.35
2023-04-11T22:50:37.979Z,89.41
2023-04-11T22:53:05.912Z,88.67
2023-04-11T22:55:34.379Z,88.17
2023-04-11T22:58:02.236Z,88.44
2023-04-11T23:00:30.012Z,88.53
2023-04-11T23:02:59.553Z,87.43
2023-04-11T23:05:26.989Z,87.44
2023-04-11T23:07:54.470Z,86.91
2023-04-11T23:10:21.682Z,87.56
2023-04-11T23:12:49.529Z,86.56
2023-04-11T23:15:17.490Z,86.76
2023-04-11T23:17:44.978Z,86.50
2023-04-11T23:20:13.478Z,85.92
2023-04-11T23:22:43.772Z,85.54
2023-04-11T23:25:11.926Z,85.67
2023-04-11T23:27:39.552Z,85.04
2023-04-11T23:30:07.781Z,85.00
2023-04-11T23:32:35.023Z,85.17
2023-04-11T23:35:04.539Z,84.99
2023-04-11T23:37:32.107Z,84.88
2023-04-11T23:39:59.766Z,84.94
2023-04-11T23:42:26.890Z,84.78
2023-04-11T23:44:54.399Z,84.72
2023-04-11T23:47:21.654Z,85.27
2023-04-11T23:49:48.755Z,85.69
2023-04-11T23:52:16.195Z,85.54
2023-04-11T23:54:43.654Z,85.56
2023-04-11T23:57:11.846Z,84.93
2023-04-11T23:59:39.410Z,84.49
